createdAt,value
2022-10-15T00:01:42.261Z,59.67
2022-10-15T00:04:08.750Z,28.08
2022-10-15T00:06:35.689Z,20.30
2022-10-15T00:09:02.241Z,47.53
2022-10-15T00:11:28.751Z,45.33
2022-10-15T00:13:56.113Z,61.50
2022-10-15T00:16:23.669Z,39.00
2022-10-15T00:18:51.601Z,20.88
2022-10-15T00:21:19.673Z,28.13
2022-10-15T00:23:46.895Z,40.80
2022-10-15T00:26:14.411Z,58.50
2022-10-15T00:28:41.212Z,57.72
2022-10-15T00:31:09.570Z,34.72
2022-10-15T00:33:36.234Z,22.95
2022-10-15T00:36:04.625Z,33.75
2022-10-15T00:38:31.748Z,43.10
2022-10-15T00:40:58.580Z,40.15
2022-10-15T00:43:39.701Z,68.95
2022-10-15T00:46:11.722Z,28.42
2022-10-15T00:48:38.440Z,61.67
2022-10-15T00:51:05.538Z,27.90
2022-10-15T00:53:32.493Z,27.10
2022-10-15T00:55:59.156Z,28.15
2022-10-15T00:58:28.406Z,25.02
2022-10-15T01:00:57.907Z,66.57
2022-10-15T01:03:24.606Z,54.97
2022-10-15T01:05:51.816Z,60.95
2022-10-15T01:08:18.343Z,60.75
2022-10-15T01:10:56.929Z,56.10
2022-10-15T01:13:43.714Z,21.88
2022-10-15T01:16:24.185Z,19.48
2022-10-15T01:18:56.418Z,57.60
2022-10-15T01:21:30.179Z,74.75
2022-10-15T01:24:05.937Z,22.80
2022-10-15T01:26:53.249Z,61.70
2022-10-15T01:29:35.167Z,67.50
2022-10-15T01:32:03.780Z,46.50
2022-10-15T01:34:36.675Z,62.90
2022-10-15T01:37:14.012Z,35.60
2022-10-15T01:39:44.388Z,80.60
2022-10-15T01:42:16.928Z,38.50
2022-10-15T01:44:46.871Z,58.40
2022-10-15T01:47:36.346Z,55.22
2022-10-15T01:50:04.363Z,49.50
2022-10-15T01:52:33.738Z,30.70
2022-10-15T01:55:00.635Z,56.17
2022-10-15T01:57:27.662Z,34.20
2022-10-15T01:59:54.356Z,37.55
2022-10-15T02:02:23.471Z,56.20
2022-10-15T02:04:50.177Z,20.95
2022-10-15T02:07:29.938Z,44.20
2022-10-15T02:10:02.427Z,37.50
2022-10-15T02:12:32.384Z,19.88
2022-10-15T02:15:06.481Z,25.75
2022-10-15T02:17:41.814Z,29.33
2022-10-15T02:20:14.326Z,45.08
2022-10-15T02:22:48.231Z,43.08
2022-10-15T02:25:18.544Z,61.60
2022-10-15T02:27:47.768Z,47.63
2022-10-15T02:30:15.333Z,48.40
2022-10-15T02:32:42.641Z,51.08
2022-10-15T02:35:10.348Z,74.15
2022-10-15T02:37:43.184Z,68.38
2022-10-15T02:40:10.040Z,25.02
2022-10-15T02:42:36.956Z,61.20
2022-10-15T02:45:07.514Z,61.60
2022-10-15T02:47:34.020Z,82.10
2022-10-15T02:50:02.840Z,31.90
2022-10-15T02:52:29.383Z,71.22
2022-10-15T02:54:55.799Z,45.58
2022-10-15T02:57:22.623Z,64.18
2022-10-15T02:59:50.137Z,27.83
2022-10-15T03:02:19.181Z,99.30
2022-10-15T03:04:46.877Z,25.88
2022-10-15T03:07:14.317Z,49.10
2022-10-15T03:09:40.902Z,51.00
2022-10-15T03:12:07.594Z,72.65
2022-10-15T03:14:34.441Z,28.67
2022-10-15T03:17:01.238Z,35.05
2022-10-15T03:19:28.236Z,83.32
2022-10-15T03:21:54.888Z,81.57
2022-10-15T03:24:21.433Z,105.00
2022-10-15T03:26:47.911Z,89.82
2022-10-15T03:29:14.494Z,83.38
2022-10-15T03:31:46.334Z,36.67
2022-10-15T03:34:12.967Z,80.40
2022-10-15T03:36:40.814Z,111.35
2022-10-15T03:39:11.946Z,73.32
2022-10-15T03:41:39.286Z,30.17
2022-10-15T03:44:06.372Z,107.63
2022-10-15T03:46:34.343Z,73.00
2022-10-15T03:49:01.077Z,136.73
2022-10-15T03:51:29.345Z,45.78
2022-10-15T03:54:04.175Z,48.30
2022-10-15T03:56:30.697Z,38.72
2022-10-15T03:59:15.717Z,83.88
2022-10-15T04:01:43.444Z,38.25
2022-10-15T04:04:13.133Z,56.53
2022-10-15T04:06:39.928Z,62.38
2022-10-15T04:09:11.163Z,81.30
2022-10-15T04:11:37.687Z,85.93
2022-10-15T04:14:04.944Z,101.60
2022-10-15T04:16:32.803Z,132.10
2022-10-15T04:19:04.098Z,79.43
2022-10-15T04:21:31.626Z,52.90
2022-10-15T04:24:01.617Z,39.83
2022-10-15T04:26:46.168Z,39.75
2022-10-15T04:29:13.282Z,127.60
2022-10-15T04:31:42.986Z,53.17
2022-10-15T04:34:09.740Z,76.03
2022-10-15T04:36:36.719Z,132.23
2022-10-15T04:39:10.923Z,138.27
2022-10-15T04:41:42.683Z,92.28
2022-10-15T04:44:20.072Z,127.25
2022-10-15T04:46:54.275Z,49.22
2022-10-15T04:49:33.996Z,176.40
2022-10-15T04:52:08.105Z,64.82
2022-10-15T04:54:42.269Z,41.97
2022-10-15T04:57:10.052Z,197.35
2022-10-15T04:59:37.425Z,57.45
2022-10-15T05:02:22.370Z,74.90
2022-10-15T05:04:54.510Z,39.40
2022-10-15T05:07:21.535Z,138.50
2022-10-15T05:09:49.297Z,117.90
2022-10-15T05:12:15.828Z,64.43
2022-10-15T05:14:42.784Z,59.72
2022-10-15T05:17:16.169Z,90.45
2022-10-15T05:19:44.143Z,113.72
2022-10-15T05:22:17.234Z,47.47
2022-10-15T05:24:50.712Z,78.85
2022-10-15T05:27:30.106Z,69.30
2022-10-15T05:29:56.602Z,52.25
2022-10-15T05:32:30.126Z,72.50
2022-10-15T05:34:56.716Z,46.05
2022-10-15T05:37:25.613Z,59.38
2022-10-15T05:39:53.294Z,73.43
2022-10-15T05:42:19.866Z,90.82
2022-10-15T05:44:52.877Z,63.00
2022-10-15T05:47:20.599Z,66.22
2022-10-15T05:49:47.498Z,58.50
2022-10-15T05:52:23.532Z,88.72
2022-10-15T05:55:05.564Z,103.55
2022-10-15T05:57:32.065Z,65.18
2022-10-15T06:00:03.824Z,64.80
2022-10-15T06:02:38.414Z,80.93
2022-10-15T06:05:06.453Z,88.45
2022-10-15T06:07:35.756Z,158.80
2022-10-15T06:10:05.756Z,72.03
2022-10-15T06:12:33.759Z,159.60
2022-10-15T06:15:00.528Z,63.22
2022-10-15T06:17:27.021Z,97.60
2022-10-15T06:19:53.557Z,224.85
2022-10-15T06:22:20.056Z,75.00
2022-10-15T06:24:48.573Z,108.32
2022-10-15T06:27:15.755Z,119.47
2022-10-15T06:29:42.466Z,84.22
2022-10-15T06:32:09.713Z,78.53
2022-10-15T06:34:39.258Z,85.55
2022-10-15T06:37:05.741Z,134.10
2022-10-15T06:39:32.321Z,93.72
2022-10-15T06:41:58.809Z,102.07
2022-10-15T06:44:38.002Z,133.63
2022-10-15T06:47:04.521Z,121.20
2022-10-15T06:49:31.123Z,85.28
2022-10-15T06:52:02.603Z,165.25
2022-10-15T06:54:30.379Z,199.88
2022-10-15T06:56:56.845Z,89.00
2022-10-15T06:59:23.455Z,137.82
2022-10-15T07:01:49.844Z,99.93
2022-10-15T07:04:16.465Z,178.20
2022-10-15T07:06:42.929Z,166.73
2022-10-15T07:09:09.411Z,120.75
2022-10-15T07:11:35.900Z,132.02
2022-10-15T07:14:02.584Z,102.90
2022-10-15T07:16:29.063Z,108.35
2022-10-15T07:18:55.607Z,73.93
2022-10-15T07:21:22.122Z,117.57
2022-10-15T07:23:48.602Z,121.43
2022-10-15T07:26:15.168Z,75.10
2022-10-15T07:28:41.614Z,109.47
2022-10-15T07:31:08.731Z,59.25
2022-10-15T07:33:35.604Z,61.47
2022-10-15T07:36:03.072Z,70.97
2022-10-15T07:38:29.542Z,53.60
2022-10-15T07:40:59.775Z,61.15
2022-10-15T07:43:26.775Z,57.72
2022-10-15T07:45:53.669Z,68.05
2022-10-15T07:48:20.217Z,57.45
2022-10-15T07:50:46.780Z,52.28
2022-10-15T07:53:13.381Z,53.42
2022-10-15T07:55:39.889Z,57.53
2022-10-15T07:58:08.267Z,55.10
2022-10-15T08:00:34.894Z,45.95
2022-10-15T08:03:01.432Z,45.13
2022-10-15T08:05:27.997Z,35.15
2022-10-15T08:07:54.493Z,29.77
2022-10-15T08:10:20.983Z,28.30
2022-10-15T08:12:47.529Z,46.05
2022-10-15T08:15:14.161Z,49.08
2022-10-15T08:17:44.601Z,24.45
2022-10-15T08:20:14.965Z,27.90
2022-10-15T08:22:42.197Z,28.80
2022-10-15T08:25:08.868Z,25.27
2022-10-15T08:27:36.944Z,27.25
2022-10-15T08:30:04.485Z,32.28
2022-10-15T08:32:31.097Z,22.58
2022-10-15T08:34:58.160Z,21.73
2022-10-15T08:37:24.883Z,17.35
2022-10-15T08:39:52.282Z,18.92
2022-10-15T08:42:26.536Z,15.70
2022-10-15T08:45:02.691Z,20.00
2022-10-15T08:47:43.742Z,12.77
2022-10-15T08:50:30.560Z,12.40
2022-10-15T08:52:59.063Z,12.60
2022-10-15T08:55:29.205Z,10.43
2022-10-15T08:58:02.074Z,12.02
2022-10-15T09:00:36.056Z,11.45
2022-10-15T09:03:05.395Z,8.75
2022-10-15T09:05:51.907Z,6.68
2022-10-15T09:08:34.155Z,8.80
2022-10-15T09:11:05.010Z,7.75
2022-10-15T09:16:15.336Z,6.05
2022-10-15T09:18:47.442Z,9.10
2022-10-15T09:21:14.499Z,8.20
2022-10-15T09:23:41.674Z,8.15
2022-10-15T09:26:27.463Z,9.50
2022-10-15T09:28:54.122Z,7.82
2022-10-15T09:31:22.563Z,8.27
2022-10-15T09:33:55.148Z,6.63
2022-10-15T09:36:31.904Z,6.15
2022-10-15T09:39:10.290Z,5.82
2022-10-15T09:41:42.630Z,3.33
2022-10-15T09:44:12.264Z,4.57
2022-10-15T09:46:46.704Z,6.13
2022-10-15T09:49:36.276Z,5.43
2022-10-15T09:52:25.399Z,4.03
2022-10-15T09:55:00.399Z,6.05
2022-10-15T09:57:27.918Z,2.40
2022-10-15T09:59:58.641Z,2.92
2022-10-15T10:02:33.201Z,3.08
2022-10-15T10:05:19.265Z,1.88
2022-10-15T10:07:45.790Z,8.25
2022-10-15T10:10:27.609Z,6.53
2022-10-15T10:12:59.487Z,3.15
2022-10-15T10:15:35.085Z,1.98
2022-10-15T10:18:02.144Z,2.15
2022-10-15T10:20:33.459Z,1.50
2022-10-15T10:23:02.475Z,2.35
2022-10-15T10:25:30.317Z,2.50
2022-10-15T10:27:58.488Z,2.67
2022-10-15T10:30:27.162Z,2.13
2022-10-15T10:33:01.099Z,3.15
2022-10-15T10:35:33.745Z,1.88
2022-10-15T10:38:00.668Z,1.92
2022-10-15T10:40:28.606Z,1.90
2022-10-15T10:43:16.921Z,2.42
2022-10-15T10:45:55.037Z,2.65
2022-10-15T10:48:26.395Z,2.22
2022-10-15T10:51:03.366Z,2.65
2022-10-15T10:53:31.390Z,4.13
2022-10-15T10:55:59.370Z,2.90
2022-10-15T10:58:28.309Z,3.05
2022-10-15T11:00:58.297Z,3.67
2022-10-15T11:03:41.197Z,2.75
2022-10-15T11:06:29.235Z,2.80
2022-10-15T11:09:24.387Z,2.53
2022-10-15T11:11:58.176Z,4.22
2022-10-15T11:14:24.657Z,2.72
2022-10-15T11:17:12.414Z,5.07
2022-10-15T11:20:13.124Z,2.08
2022-10-15T11:22:53.902Z,4.50
2022-10-15T11:25:33.595Z,2.50
2022-10-15T11:28:14.222Z,3.65
2022-10-15T11:30:47.900Z,2.58
2022-10-15T11:33:14.658Z,4.22
2022-10-15T11:35:59.806Z,3.67
2022-10-15T11:38:43.615Z,3.15
2022-10-15T11:41:24.948Z,5.03
2022-10-15T11:44:17.670Z,4.40
2022-10-15T11:46:53.299Z,6.60
2022-10-15T11:49:39.688Z,4.07
2022-10-15T11:52:26.185Z,5.95
2022-10-15T11:55:08.462Z,4.72
2022-10-15T11:57:36.293Z,2.17
2022-10-15T12:00:11.578Z,3.35
2022-10-15T12:02:44.377Z,3.00
2022-10-15T12:05:18.772Z,4.82
2022-10-15T12:07:51.546Z,5.75
2022-10-15T12:10:37.043Z,5.25
2022-10-15T12:13:16.349Z,3.97
2022-10-15T12:15:51.243Z,4.70
2022-10-15T12:18:24.368Z,1.75
2022-10-15T12:20:55.231Z,2.13
2022-10-15T12:23:39.454Z,1.60
2022-10-15T12:26:24.426Z,2.50
2022-10-15T12:28:52.342Z,1.30
2022-10-15T12:31:20.778Z,2.75
2022-10-15T12:33:51.923Z,2.95
2022-10-15T12:36:21.445Z,7.85
2022-10-15T12:39:07.911Z,2.15
2022-10-15T12:41:44.108Z,1.02
2022-10-15T12:46:59.040Z,0.82
2022-10-15T12:49:32.167Z,2.10
2022-10-15T12:51:59.529Z,2.03
2022-10-15T12:54:38.610Z,3.03
2022-10-15T12:57:27.502Z,1.80
2022-10-15T12:59:56.449Z,0.60
2022-10-15T13:05:26.158Z,2.67
2022-10-15T13:07:53.107Z,2.42
2022-10-15T13:10:27.831Z,3.08
2022-10-15T13:12:57.148Z,3.67
2022-10-15T13:15:29.341Z,1.50
2022-10-15T13:17:57.921Z,3.05
2022-10-15T13:20:24.458Z,2.65
2022-10-15T13:22:58.350Z,2.25
2022-10-15T13:25:35.133Z,3.60
2022-10-15T13:28:01.856Z,2.33
2022-10-15T13:30:29.967Z,0.88
2022-10-15T13:32:58.139Z,0.85
2022-10-15T13:35:33.123Z,1.35
2022-10-15T13:38:02.236Z,1.52
2022-10-15T13:40:30.794Z,3.00
2022-10-15T13:43:01.686Z,1.60
2022-10-15T13:45:29.205Z,2.45
2022-10-15T13:47:56.224Z,3.67
2022-10-15T13:50:27.672Z,1.60
2022-10-15T13:52:57.849Z,3.03
2022-10-15T13:55:33.800Z,1.35
2022-10-15T13:58:03.964Z,1.58
2022-10-15T14:00:34.902Z,1.42
2022-10-15T14:03:07.726Z,1.88
2022-10-15T14:05:34.256Z,0.98
2022-10-15T14:08:01.584Z,2.25
2022-10-15T14:10:32.003Z,1.10
2022-10-15T14:12:58.530Z,2.47
2022-10-15T14:15:43.781Z,1.48
2022-10-15T14:18:12.846Z,2.05
2022-10-15T14:20:43.262Z,5.57
2022-10-15T14:23:15.785Z,1.23
2022-10-15T14:25:44.016Z,3.13
2022-10-15T14:28:23.955Z,1.80
2022-10-15T14:30:51.026Z,1.15
2022-10-15T14:33:32.118Z,1.10
2022-10-15T14:36:09.579Z,1.40
2022-10-15T14:38:36.437Z,2.80
2022-10-15T14:41:19.712Z,1.08
2022-10-15T14:43:46.283Z,1.58
2022-10-15T14:46:17.455Z,1.33
2022-10-15T14:48:45.551Z,1.60
2022-10-15T14:51:19.379Z,1.30
2022-10-15T14:53:48.099Z,2.05
2022-10-15T14:56:20.468Z,1.20
2022-10-15T14:58:57.249Z,1.20
2022-10-15T15:01:24.474Z,1.20
2022-10-15T15:03:52.048Z,1.48
2022-10-15T15:06:18.760Z,3.05
2022-10-15T15:08:46.780Z,1.27
2022-10-15T15:11:15.644Z,2.25
2022-10-15T15:13:43.293Z,3.00
2022-10-15T15:16:14.906Z,2.78
2022-10-15T15:18:43.999Z,1.90
2022-10-15T15:21:12.927Z,0.70
2022-10-15T15:23:39.384Z,0.77
2022-10-15T15:26:08.056Z,1.42
2022-10-15T15:28:35.001Z,0.90
2022-10-15T15:31:05.366Z,1.83
2022-10-15T15:33:32.473Z,1.77
2022-10-15T15:36:03.517Z,1.20
2022-10-15T15:38:32.973Z,2.60
2022-10-15T15:41:16.893Z,4.45
2022-10-15T15:43:45.194Z,2.63
2022-10-15T15:46:13.277Z,3.05
2022-10-15T15:48:40.154Z,3.97
2022-10-15T15:51:33.569Z,3.97
2022-10-15T15:54:02.761Z,2.92
2022-10-15T15:56:31.757Z,1.70
2022-10-15T15:58:58.203Z,3.80
2022-10-15T16:01:25.103Z,3.42
2022-10-15T16:03:51.613Z,1.40
2022-10-15T16:06:18.321Z,3.20
2022-10-15T16:08:46.327Z,1.50
2022-10-15T16:11:12.922Z,1.75
2022-10-15T16:13:43.234Z,1.90
2022-10-15T16:16:10.703Z,2.75
2022-10-15T16:18:37.847Z,3.83
2022-10-15T16:21:04.815Z,4.35
2022-10-15T16:23:31.362Z,1.80
2022-10-15T16:25:59.668Z,3.20
2022-10-15T16:28:26.250Z,3.63
2022-10-15T16:30:55.114Z,4.15
2022-10-15T16:33:21.702Z,5.10
2022-10-15T16:35:56.977Z,3.17
2022-10-15T16:38:23.580Z,3.22
2022-10-15T16:40:50.044Z,3.15
2022-10-15T16:43:16.762Z,4.25
2022-10-15T16:45:43.271Z,2.88
2022-10-15T16:48:10.913Z,3.65
2022-10-15T16:50:37.609Z,2.70
2022-10-15T16:53:05.192Z,3.05
2022-10-15T16:55:32.531Z,3.33
2022-10-15T16:57:59.167Z,5.00
2022-10-15T17:00:25.678Z,2.38
2022-10-15T17:02:52.201Z,4.18
2022-10-15T17:05:18.706Z,2.72
2022-10-15T17:07:47.645Z,4.25
2022-10-15T17:10:16.754Z,2.35
2022-10-15T17:12:47.049Z,2.83
2022-10-15T17:15:15.906Z,2.40
2022-10-15T17:17:42.489Z,2.72
2022-10-15T17:20:09.327Z,1.88
2022-10-15T17:22:36.497Z,2.38
2022-10-15T17:25:06.164Z,2.70
2022-10-15T17:27:34.608Z,3.25
2022-10-15T17:30:01.377Z,2.20
2022-10-15T17:32:28.034Z,2.58
2022-10-15T17:34:54.836Z,3.67
2022-10-15T17:37:21.636Z,2.10
2022-10-15T17:39:48.297Z,2.17
2022-10-15T17:42:15.967Z,2.63
2022-10-15T17:44:42.721Z,3.58
2022-10-15T17:47:11.899Z,3.78
2022-10-15T17:49:38.508Z,5.95
2022-10-15T17:52:05.991Z,2.30
2022-10-15T17:54:32.581Z,4.80
2022-10-15T17:56:59.060Z,2.13
2022-10-15T17:59:27.083Z,3.63
2022-10-15T18:01:59.673Z,4.43
2022-10-15T18:04:27.854Z,3.58
2022-10-15T18:06:54.778Z,4.22
2022-10-15T18:09:23.577Z,5.50
2022-10-15T18:11:50.707Z,6.45
2022-10-15T18:14:17.670Z,3.70
2022-10-15T18:16:44.352Z,3.28
2022-10-15T18:19:10.895Z,2.35
2022-10-15T18:21:37.475Z,4.47
2022-10-15T18:24:04.140Z,4.47
2022-10-15T18:26:32.292Z,4.35
2022-10-15T18:28:58.833Z,6.90
2022-10-15T18:31:28.331Z,3.92
2022-10-15T18:33:56.000Z,8.63
2022-10-15T18:36:27.113Z,4.20
2022-10-15T18:38:55.171Z,3.28
2022-10-15T18:41:27.739Z,4.45
2022-10-15T18:43:58.611Z,5.28
2022-10-15T18:46:31.129Z,5.38
2022-10-15T18:48:58.247Z,8.27
2022-10-15T18:51:26.002Z,6.03
2022-10-15T18:53:52.662Z,8.98
2022-10-15T18:56:19.656Z,5.38
2022-10-15T18:58:46.287Z,8.93
2022-10-15T19:01:14.218Z,3.63
2022-10-15T19:03:40.794Z,6.03
2022-10-15T19:06:08.262Z,5.55
2022-10-15T19:08:34.852Z,7.65
2022-10-15T19:11:05.422Z,4.10
2022-10-15T19:13:31.956Z,5.80
2022-10-15T19:16:00.138Z,3.50
2022-10-15T19:18:26.957Z,7.03
2022-10-15T19:20:53.419Z,3.42
2022-10-15T19:23:20.318Z,8.35
2022-10-15T19:25:46.839Z,3.70
2022-10-15T19:28:13.405Z,4.55
2022-10-15T19:30:41.006Z,8.93
2022-10-15T19:33:08.199Z,4.75
2022-10-15T19:35:38.818Z,7.22
2022-10-15T19:38:05.323Z,5.95
2022-10-15T19:40:31.950Z,8.45
2022-10-15T19:42:58.416Z,5.97
2022-10-15T19:45:26.908Z,8.10
2022-10-15T19:47:53.362Z,6.70
2022-10-15T19:50:19.872Z,5.97
2022-10-15T19:52:46.302Z,7.45
2022-10-15T19:55:12.792Z,6.15
2022-10-15T19:57:39.244Z,6.13
2022-10-15T20:00:07.407Z,5.25
2022-10-15T20:02:38.937Z,4.47
2022-10-15T20:05:05.703Z,4.75
2022-10-15T20:07:32.191Z,8.18
2022-10-15T20:09:58.655Z,6.78
2022-10-15T20:12:25.193Z,5.75
2022-10-15T20:14:51.694Z,8.25
2022-10-15T20:17:18.567Z,3.90
2022-10-15T20:19:45.053Z,11.60
2022-10-15T20:22:11.619Z,7.50
2022-10-15T20:24:38.148Z,6.03
2022-10-15T20:27:04.605Z,6.68
2022-10-15T20:29:31.147Z,6.18
2022-10-15T20:32:05.716Z,7.63
2022-10-15T20:34:43.783Z,6.63
2022-10-15T20:37:10.365Z,7.93
2022-10-15T20:39:36.849Z,5.97
2022-10-15T20:42:03.635Z,14.18
2022-10-15T20:44:30.421Z,7.15
2022-10-15T20:46:59.939Z,7.28
2022-10-15T20:49:28.208Z,11.63
2022-10-15T20:51:55.054Z,32.85
2022-10-15T20:54:21.549Z,14.68
2022-10-15T20:56:48.447Z,29.20
2022-10-15T20:59:14.935Z,7.72
2022-10-15T21:01:41.863Z,9.25
2022-10-15T21:04:08.445Z,14.95
2022-10-15T21:06:35.070Z,7.70
2022-10-15T21:09:01.652Z,14.85
2022-10-15T21:11:28.089Z,14.88
2022-10-15T21:13:54.684Z,7.00
2022-10-15T21:16:24.505Z,11.10
2022-10-15T21:18:54.095Z,9.73
2022-10-15T21:21:20.680Z,9.88
2022-10-15T21:23:47.139Z,8.82
2022-10-15T21:26:15.276Z,9.57
2022-10-15T21:28:42.231Z,10.30
2022-10-15T21:31:10.099Z,9.32
2022-10-15T21:33:36.939Z,12.70
2022-10-15T21:36:12.722Z,36.13
2022-10-15T21:38:39.440Z,7.75
2022-10-15T21:41:06.368Z,8.10
2022-10-15T21:43:32.938Z,5.60
2022-10-15T21:46:10.122Z,9.50
2022-10-15T21:48:36.976Z,6.43
2022-10-15T21:51:04.382Z,5.85
2022-10-15T21:53:31.044Z,12.70
2022-10-15T21:55:57.519Z,5.18
2022-10-15T21:58:23.979Z,4.97
2022-10-15T22:00:50.450Z,5.57
2022-10-15T22:03:16.981Z,5.57
2022-10-15T22:05:43.548Z,9.25
2022-10-15T22:08:10.506Z,8.43
2022-10-15T22:10:37.277Z,5.70
2022-10-15T22:13:03.875Z,4.50
2022-10-15T22:15:32.043Z,10.68
2022-10-15T22:17:58.714Z,4.22
2022-10-15T22:20:25.632Z,4.03
2022-10-15T22:22:55.225Z,4.43
2022-10-15T22:25:21.848Z,18.77
2022-10-15T22:27:48.406Z,9.25
2022-10-15T22:30:15.018Z,4.97
2022-10-15T22:32:41.521Z,5.68
2022-10-15T22:35:08.203Z,5.55
2022-10-15T22:37:34.645Z,8.57
2022-10-15T22:40:01.298Z,8.23
2022-10-15T22:42:27.990Z,10.15
2022-10-15T22:44:54.712Z,8.00
2022-10-15T22:47:21.245Z,6.65
2022-10-15T22:49:47.927Z,5.80
2022-10-15T22:52:14.438Z,4.18
2022-10-15T22:54:40.872Z,6.00
2022-10-15T22:57:07.416Z,4.28
2022-10-15T22:59:34.389Z,6.45
2022-10-15T23:02:00.936Z,3.58
2022-10-15T23:04:27.507Z,5.93
2022-10-15T23:06:53.967Z,21.27
2022-10-15T23:09:21.898Z,8.32
2022-10-15T23:11:48.520Z,3.33
2022-10-15T23:14:16.113Z,10.77
2022-10-15T23:16:46.564Z,7.32
2022-10-15T23:19:13.070Z,3.65
2022-10-15T23:21:44.472Z,5.47
2022-10-15T23:24:11.175Z,4.10
2022-10-15T23:26:38.471Z,3.83
2022-10-15T23:29:06.073Z,28.50
2022-10-15T23:31:34.757Z,3.70
2022-10-15T23:34:01.790Z,7.45
2022-10-15T23:36:29.129Z,4.88
2022-10-15T23:38:59.988Z,7.47
2022-10-15T23:41:27.482Z,6.40
2022-10-15T23:43:54.085Z,4.45
2022-10-15T23:46:20.689Z,3.97
2022-10-15T23:48:47.876Z,4.20
2022-10-15T23:51:19.026Z,5.90
2022-10-15T23:53:45.596Z,4.47
2022-10-15T23:56:12.405Z,7.07
2022-10-15T23:58:39.130Z,7.10
